sensor_id;sensor_type;location;lat;lon;timestamp;pressure;altitude;pressure_sealevel;temperature;humidity
83483;BME280;73420;32.678;-85.380;2024-03-08T00:00:21;98333.10;;;29.35;18.80
83483;BME280;73420;32.678;-85.380;2024-03-08T00:02:46;98337.99;;;29.29;18.54
83483;BME280;73420;32.678;-85.380;2024-03-08T00:05:12;98347.68;;;29.11;18.88
83483;BME280;73420;32.678;-85.380;2024-03-08T00:07:37;98353.61;;;29.41;19.22
83483;BME280;73420;32.678;-85.380;2024-03-08T00:10:02;98351.57;;;29.34;19.01
83483;BME280;73420;32.678;-85.380;2024-03-08T00:12:27;98364.35;;;29.02;19.21
83483;BME280;73420;32.678;-85.380;2024-03-08T00:14:53;98364.54;;;28.87;19.31
83483;BME280;73420;32.678;-85.380;2024-03-08T00:17:18;98373.23;;;29.26;19.18
83483;BME280;73420;32.678;-85.380;2024-03-08T00:19:44;98379.23;;;28.78;19.12
83483;BME280;73420;32.678;-85.380;2024-03-08T00:22:09;98380.51;;;29.14;19.32
83483;BME280;73420;32.678;-85.380;2024-03-08T00:24:34;98377.86;;;28.84;19.49
83483;BME280;73420;32.678;-85.380;2024-03-08T00:27:00;98380.43;;;28.56;19.75
83483;BME280;73420;32.678;-85.380;2024-03-08T00:29:25;98380.21;;;28.53;19.71
83483;BME280;73420;32.678;-85.380;2024-03-08T00:31:50;98377.33;;;28.36;19.84
83483;BME280;73420;32.678;-85.380;2024-03-08T00:34:16;98370.85;;;28.49;19.86
83483;BME280;73420;32.678;-85.380;2024-03-08T00:36:42;98364.19;;;28.36;20.36
83483;BME280;73420;32.678;-85.380;2024-03-08T00:39:07;98369.92;;;27.99;20.62
83483;BME280;73420;32.678;-85.380;2024-03-08T00:41:33;98383.20;;;28.23;20.29
83483;BME280;73420;32.678;-85.380;2024-03-08T00:43:58;98382.85;;;28.44;19.83
83483;BME280;73420;32.678;-85.380;2024-03-08T00:46:23;98394.23;;;28.47;19.79
83483;BME280;73420;32.678;-85.380;2024-03-08T00:48:49;98403.19;;;28.34;19.66
83483;BME280;73420;32.678;-85.380;2024-03-08T00:51:14;98405.58;;;28.17;20.21
83483;BME280;73420;32.678;-85.380;2024-03-08T00:53:41;98415.90;;;28.06;20.16
83483;BME280;73420;32.678;-85.380;2024-03-08T00:56:05;98423.90;;;28.55;19.91
83483;BME280;73420;32.678;-85.380;2024-03-08T00:58:31;98425.15;;;28.04;20.17
83483;BME280;73420;32.678;-85.380;2024-03-08T01:00:56;98428.50;;;27.39;20.49
83483;BME280;73420;32.678;-85.380;2024-03-08T01:03:22;98428.46;;;27.70;20.38
83483;BME280;73420;32.678;-85.380;2024-03-08T01:05:47;98429.37;;;28.21;20.16
83483;BME280;73420;32.678;-85.380;2024-03-08T01:08:13;98434.55;;;27.48;20.57
83483;BME280;73420;32.678;-85.380;2024-03-08T01:10:38;98437.81;;;27.89;20.78
83483;BME280;73420;32.678;-85.380;2024-03-08T01:13:04;98437.50;;;27.76;20.08
83483;BME280;73420;32.678;-85.380;2024-03-08T01:15:29;98444.77;;;27.88;20.19
83483;BME280;73420;32.678;-85.380;2024-03-08T01:17:54;98445.22;;;27.78;19.93
83483;BME280;73420;32.678;-85.380;2024-03-08T01:20:20;98451.63;;;27.59;19.82
83483;BME280;73420;32.678;-85.380;2024-03-08T01:22:45;98459.05;;;28.08;20.21
83483;BME280;73420;32.678;-85.380;2024-03-08T01:25:10;98460.77;;;27.89;20.29
83483;BME280;73420;32.678;-85.380;2024-03-08T01:27:36;98453.23;;;28.07;19.99
83483;BME280;73420;32.678;-85.380;2024-03-08T01:30:04;98452.98;;;27.95;20.84
83483;BME280;73420;32.678;-85.380;2024-03-08T01:32:27;98457.84;;;27.55;20.00
83483;BME280;73420;32.678;-85.380;2024-03-08T01:34:52;98463.31;;;27.56;20.11
83483;BME280;73420;32.678;-85.380;2024-03-08T01:37:18;98464.20;;;27.77;19.87
83483;BME280;73420;32.678;-85.380;2024-03-08T01:39:43;98466.92;;;27.28;19.83
83483;BME280;73420;32.678;-85.380;2024-03-08T01:42:08;98470.27;;;26.57;21.84
83483;BME280;73420;32.678;-85.380;2024-03-08T01:44:33;98472.36;;;27.09;22.71
83483;BME280;73420;32.678;-85.380;2024-03-08T01:46:59;98471.50;;;26.81;23.00
83483;BME280;73420;32.678;-85.380;2024-03-08T01:49:25;98468.54;;;26.83;22.54
83483;BME280;73420;32.678;-85.380;2024-03-08T01:51:50;98462.04;;;26.58;22.76
83483;BME280;73420;32.678;-85.380;2024-03-08T01:54:18;98458.87;;;26.51;22.22
83483;BME280;73420;32.678;-85.380;2024-03-08T01:56:41;98453.63;;;26.65;21.85
83483;BME280;73420;32.678;-85.380;2024-03-08T01:59:06;98449.48;;;26.64;21.63
83483;BME280;73420;32.678;-85.380;2024-03-08T02:01:31;98446.18;;;26.78;23.06
83483;BME280;73420;32.678;-85.380;2024-03-08T02:03:56;98448.78;;;26.58;23.25
83483;BME280;73420;32.678;-85.380;2024-03-08T02:06:22;98453.18;;;26.31;22.65
83483;BME280;73420;32.678;-85.380;2024-03-08T02:08:47;98454.98;;;26.50;23.64
83483;BME280;73420;32.678;-85.380;2024-03-08T02:11:13;98458.62;;;26.59;23.48
83483;BME280;73420;32.678;-85.380;2024-03-08T02:13:38;98462.45;;;26.01;23.31
83483;BME280;73420;32.678;-85.380;2024-03-08T02:16:03;98465.73;;;26.04;23.39
83483;BME280;73420;32.678;-85.380;2024-03-08T02:18:29;98464.81;;;25.81;23.22
83483;BME280;73420;32.678;-85.380;2024-03-08T02:20:54;98466.85;;;26.16;23.04
83483;BME280;73420;32.678;-85.380;2024-03-08T02:23:19;98462.17;;;26.11;22.87
83483;BME280;73420;32.678;-85.380;2024-03-08T02:25:45;98465.57;;;25.89;23.32
83483;BME280;73420;32.678;-85.380;2024-03-08T02:28:11;98469.98;;;26.11;22.71
83483;BME280;73420;32.678;-85.380;2024-03-08T02:30:36;98467.97;;;25.90;23.07
83483;BME280;73420;32.678;-85.380;2024-03-08T02:33:01;98468.72;;;25.97;23.33
83483;BME280;73420;32.678;-85.380;2024-03-08T02:35:27;98465.90;;;26.17;23.06
83483;BME280;73420;32.678;-85.380;2024-03-08T02:37:53;98469.10;;;26.16;22.64
83483;BME280;73420;32.678;-85.380;2024-03-08T02:40:18;98473.83;;;26.14;22.40
83483;BME280;73420;32.678;-85.380;2024-03-08T02:42:43;98475.82;;;26.38;22.09
83483;BME280;73420;32.678;-85.380;2024-03-08T02:45:09;98474.39;;;26.10;22.27
83483;BME280;73420;32.678;-85.380;2024-03-08T02:47:34;98470.62;;;26.17;23.25
83483;BME280;73420;32.678;-85.380;2024-03-08T02:50:00;98465.73;;;26.13;22.66
83483;BME280;73420;32.678;-85.380;2024-03-08T02:52:25;98462.13;;;26.21;21.85
83483;BME280;73420;32.678;-85.380;2024-03-08T02:54:50;98466.82;;;26.43;21.22
83483;BME280;73420;32.678;-85.380;2024-03-08T02:57:16;98465.85;;;26.52;21.18
83483;BME280;73420;32.678;-85.380;2024-03-08T02:59:41;98458.56;;;26.50;21.65
83483;BME280;73420;32.678;-85.380;2024-03-08T03:02:07;98455.03;;;26.18;21.36
83483;BME280;73420;32.678;-85.380;2024-03-08T03:04:32;98450.90;;;26.02;21.67
83483;BME280;73420;32.678;-85.380;2024-03-08T03:06:57;98444.69;;;26.27;22.60
83483;BME280;73420;32.678;-85.380;2024-03-08T03:09:23;98446.74;;;26.11;22.78
83483;BME280;73420;32.678;-85.380;2024-03-08T03:11:48;98441.61;;;25.94;22.92
83483;BME280;73420;32.678;-85.380;2024-03-08T03:14:14;98444.51;;;25.79;23.24
83483;BME280;73420;32.678;-85.380;2024-03-08T03:16:39;98454.32;;;25.86;23.19
83483;BME280;73420;32.678;-85.380;2024-03-08T03:19:04;98451.98;;;25.89;23.13
83483;BME280;73420;32.678;-85.380;2024-03-08T03:21:29;98452.24;;;26.00;23.16
83483;BME280;73420;32.678;-85.380;2024-03-08T03:23:55;98457.12;;;26.05;23.36
83483;BME280;73420;32.678;-85.380;2024-03-08T03:26:20;98464.58;;;26.10;23.41
83483;BME280;73420;32.678;-85.380;2024-03-08T03:28:45;98464.51;;;26.14;23.31
83483;BME280;73420;32.678;-85.380;2024-03-08T03:31:11;98464.14;;;26.14;23.37
83483;BME280;73420;32.678;-85.380;2024-03-08T03:33:36;98463.89;;;26.18;23.29
83483;BME280;73420;32.678;-85.380;2024-03-08T03:36:02;98461.36;;;26.18;23.34
83483;BME280;73420;32.678;-85.380;2024-03-08T03:38:28;98459.03;;;25.93;23.37
83483;BME280;73420;32.678;-85.380;2024-03-08T03:40:52;98455.43;;;26.21;23.42
83483;BME280;73420;32.678;-85.380;2024-03-08T03:43:18;98454.49;;;26.11;23.62
83483;BME280;73420;32.678;-85.380;2024-03-08T03:45:43;98459.96;;;26.06;23.88
83483;BME280;73420;32.678;-85.380;2024-03-08T03:48:09;98459.32;;;26.05;24.08
83483;BME280;73420;32.678;-85.380;2024-03-08T03:50:34;98460.29;;;26.10;24.06
83483;BME280;73420;32.678;-85.380;2024-03-08T03:52:59;98454.25;;;25.87;24.12
83483;BME280;73420;32.678;-85.380;2024-03-08T03:55:25;98444.12;;;26.11;24.09
83483;BME280;73420;32.678;-85.380;2024-03-08T03:57:50;98446.11;;;25.84;24.07
83483;BME280;73420;32.678;-85.380;2024-03-08T04:00:17;98451.93;;;25.87;24.18
83483;BME280;73420;32.678;-85.380;2024-03-08T04:02:41;98462.08;;;26.21;24.00
83483;BME280;73420;32.678;-85.380;2024-03-08T04:05:08;98475.78;;;25.87;24.10
83483;BME280;73420;32.678;-85.380;2024-03-08T04:07:31;98483.80;;;26.21;23.91
83483;BME280;73420;32.678;-85.380;2024-03-08T04:09:57;98484.68;;;26.08;24.09
83483;BME280;73420;32.678;-85.380;2024-03-08T04:12:22;98481.76;;;26.08;24.15
83483;BME280;73420;32.678;-85.380;2024-03-08T04:14:48;98479.47;;;26.40;23.88
83483;BME280;73420;32.678;-85.380;2024-03-08T04:17:13;98475.22;;;26.04;23.92
83483;BME280;73420;32.678;-85.380;2024-03-08T04:19:38;98473.09;;;26.33;24.04
83483;BME280;73420;32.678;-85.380;2024-03-08T04:22:05;98476.54;;;26.30;24.00
83483;BME280;73420;32.678;-85.380;2024-03-08T04:24:29;98477.61;;;26.20;24.06
83483;BME280;73420;32.678;-85.380;2024-03-08T04:26:55;98472.87;;;26.17;24.27
83483;BME280;73420;32.678;-85.380;2024-03-08T04:29:20;98472.16;;;26.19;24.24
83483;BME280;73420;32.678;-85.380;2024-03-08T04:31:45;98465.54;;;26.21;24.24
83483;BME280;73420;32.678;-85.380;2024-03-08T04:34:11;98451.06;;;26.18;24.44
83483;BME280;73420;32.678;-85.380;2024-03-08T04:36:36;98437.59;;;26.12;24.52
83483;BME280;73420;32.678;-85.380;2024-03-08T04:39:02;98426.53;;;26.06;24.51
83483;BME280;73420;32.678;-85.380;2024-03-08T04:41:27;98421.88;;;25.94;24.70
83483;BME280;73420;32.678;-85.380;2024-03-08T04:43:52;98424.06;;;26.14;24.88
83483;BME280;73420;32.678;-85.380;2024-03-08T04:46:18;98424.80;;;25.88;24.75
83483;BME280;73420;32.678;-85.380;2024-03-08T04:48:43;98425.49;;;25.95;24.75
83483;BME280;73420;32.678;-85.380;2024-03-08T04:51:08;98427.75;;;25.97;24.71
83483;BME280;73420;32.678;-85.380;2024-03-08T04:53:33;98430.83;;;25.88;24.74
83483;BME280;73420;32.678;-85.380;2024-03-08T04:55:59;98435.86;;;25.89;24.77
83483;BME280;73420;32.678;-85.380;2024-03-08T04:58:24;98441.56;;;25.68;24.63
83483;BME280;73420;32.678;-85.380;2024-03-08T05:00:50;98450.14;;;25.88;24.74
83483;BME280;73420;32.678;-85.380;2024-03-08T05:03:15;98447.91;;;25.79;24.81
83483;BME280;73420;32.678;-85.380;2024-03-08T05:05:41;98437.67;;;26.03;24.85
83483;BME280;73420;32.678;-85.380;2024-03-08T05:08:06;98434.21;;;25.75;24.82
83483;BME280;73420;32.678;-85.380;2024-03-08T05:10:31;98434.97;;;25.76;24.90
83483;BME280;73420;32.678;-85.380;2024-03-08T05:12:57;98436.21;;;25.67;24.92
83483;BME280;73420;32.678;-85.380;2024-03-08T05:15:22;98437.77;;;26.14;24.93
83483;BME280;73420;32.678;-85.380;2024-03-08T05:17:48;98440.02;;;25.66;24.88
83483;BME280;73420;32.678;-85.380;2024-03-08T05:20:13;98436.01;;;25.95;24.88
83483;BME280;73420;32.678;-85.380;2024-03-08T05:22:38;98436.82;;;25.68;24.89
83483;BME280;73420;32.678;-85.380;2024-03-08T05:25:05;98437.25;;;25.89;24.88
83483;BME280;73420;32.678;-85.380;2024-03-08T05:27:29;98441.13;;;25.57;24.91
83483;BME280;73420;32.678;-85.380;2024-03-08T05:29:54;98451.96;;;25.54;24.90
83483;BME280;73420;32.678;-85.380;2024-03-08T05:32:20;98461.23;;;25.61;24.89
83483;BME280;73420;32.678;-85.380;2024-03-08T05:34:45;98461.72;;;25.52;24.93
83483;BME280;73420;32.678;-85.380;2024-03-08T05:37:11;98468.83;;;25.98;24.93
83483;BME280;73420;32.678;-85.380;2024-03-08T05:39:36;98475.30;;;25.46;25.03
83483;BME280;73420;32.678;-85.380;2024-03-08T05:42:04;98464.66;;;26.02;25.01
83483;BME280;73420;32.678;-85.380;2024-03-08T05:44:27;98452.67;;;25.78;25.05
83483;BME280;73420;32.678;-85.380;2024-03-08T05:46:52;98444.56;;;25.72;25.11
83483;BME280;73420;32.678;-85.380;2024-03-08T05:49:18;98440.01;;;25.43;25.16
83483;BME280;73420;32.678;-85.380;2024-03-08T05:51:43;98434.90;;;25.38;25.28
83483;BME280;73420;32.678;-85.380;2024-03-08T05:54:11;98432.88;;;25.60;25.31
83483;BME280;73420;32.678;-85.380;2024-03-08T05:56:34;98432.24;;;25.74;25.44
83483;BME280;73420;32.678;-85.380;2024-03-08T05:59:00;98423.75;;;25.54;25.33
83483;BME280;73420;32.678;-85.380;2024-03-08T06:01:25;98418.23;;;25.74;25.41
83483;BME280;73420;32.678;-85.380;2024-03-08T06:03:51;98418.94;;;25.47;25.34
83483;BME280;73420;32.678;-85.380;2024-03-08T06:06:16;98424.30;;;25.31;25.33
83483;BME280;73420;32.678;-85.380;2024-03-08T06:08:41;98431.02;;;25.46;25.45
83483;BME280;73420;32.678;-85.380;2024-03-08T06:11:07;98435.94;;;25.78;25.37
83483;BME280;73420;32.678;-85.380;2024-03-08T06:13:32;98443.67;;;25.82;25.37
83483;BME280;73420;32.678;-85.380;2024-03-08T06:15:58;98449.75;;;25.81;25.30
83483;BME280;73420;32.678;-85.380;2024-03-08T06:18:23;98452.20;;;25.52;25.20
83483;BME280;73420;32.678;-85.380;2024-03-08T06:20:48;98448.46;;;25.74;25.25
83483;BME280;73420;32.678;-85.380;2024-03-08T06:23:14;98452.27;;;25.71;25.33
83483;BME280;73420;32.678;-85.380;2024-03-08T06:25:39;98448.01;;;25.29;25.33
83483;BME280;73420;32.678;-85.380;2024-03-08T06:28:05;98444.07;;;25.75;25.33
83483;BME280;73420;32.678;-85.380;2024-03-08T06:30:30;98446.39;;;25.26;25.48
83483;BME280;73420;32.678;-85.380;2024-03-08T06:32:55;98456.44;;;25.68;25.43
83483;BME280;73420;32.678;-85.380;2024-03-08T06:35:21;98452.41;;;25.41;25.64
83483;BME280;73420;32.678;-85.380;2024-03-08T06:37:46;98448.97;;;25.65;25.54
83483;BME280;73420;32.678;-85.380;2024-03-08T06:40:12;98456.16;;;25.47;25.52
83483;BME280;73420;32.678;-85.380;2024-03-08T06:42:37;98450.22;;;25.73;25.62
83483;BME280;73420;32.678;-85.380;2024-03-08T06:45:03;98446.42;;;25.49;25.60
83483;BME280;73420;32.678;-85.380;2024-03-08T06:47:27;98447.18;;;25.73;25.59
83483;BME280;73420;32.678;-85.380;2024-03-08T06:49:52;98442.95;;;25.78;25.67
83483;BME280;73420;32.678;-85.380;2024-03-08T06:52:18;98444.93;;;25.55;25.68
83483;BME280;73420;32.678;-85.380;2024-03-08T06:54:43;98446.17;;;25.73;25.84
83483;BME280;73420;32.678;-85.380;2024-03-08T06:57:09;98446.99;;;25.32;25.78
83483;BME280;73420;32.678;-85.380;2024-03-08T06:59:34;98439.83;;;25.86;25.73
83483;BME280;73420;32.678;-85.380;2024-03-08T07:01:59;98433.26;;;25.71;25.70
83483;BME280;73420;32.678;-85.380;2024-03-08T07:04:25;98432.42;;;25.97;25.69
83483;BME280;73420;32.678;-85.380;2024-03-08T07:06:50;98439.18;;;26.00;25.67
83483;BME280;73420;32.678;-85.380;2024-03-08T07:09:15;98448.65;;;25.94;25.83
83483;BME280;73420;32.678;-85.380;2024-03-08T07:11:41;98452.37;;;25.70;25.88
83483;BME280;73420;32.678;-85.380;2024-03-08T07:14:06;98466.18;;;25.69;25.83
83483;BME280;73420;32.678;-85.380;2024-03-08T07:16:32;98474.29;;;25.68;25.84
83483;BME280;73420;32.678;-85.380;2024-03-08T07:18:57;98478.02;;;25.97;25.85
83483;BME280;73420;32.678;-85.380;2024-03-08T07:21:23;98476.32;;;25.71;25.87
83483;BME280;73420;32.678;-85.380;2024-03-08T07:23:49;98475.48;;;25.90;25.88
83483;BME280;73420;32.678;-85.380;2024-03-08T07:26:15;98483.41;;;25.44;25.76
83483;BME280;73420;32.678;-85.380;2024-03-08T07:28:40;98486.08;;;25.46;26.01
83483;BME280;73420;32.678;-85.380;2024-03-08T07:31:05;98481.07;;;25.63;26.13
83483;BME280;73420;32.678;-85.380;2024-03-08T07:33:30;98467.14;;;25.42;26.36
83483;BME280;73420;32.678;-85.380;2024-03-08T07:35:56;98454.83;;;25.23;26.36
83483;BME280;73420;32.678;-85.380;2024-03-08T07:38:21;98452.59;;;25.72;26.35
83483;BME280;73420;32.678;-85.380;2024-03-08T07:40:47;98455.84;;;25.69;26.36
83483;BME280;73420;32.678;-85.380;2024-03-08T07:43:13;98465.26;;;25.61;26.47
83483;BME280;73420;32.678;-85.380;2024-03-08T07:45:38;98473.80;;;25.60;26.40
83483;BME280;73420;32.678;-85.380;2024-03-08T07:48:05;98474.92;;;25.35;26.49
83483;BME280;73420;32.678;-85.380;2024-03-08T07:50:30;98473.68;;;25.58;26.55
83483;BME280;73420;32.678;-85.380;2024-03-08T07:52:55;98473.94;;;25.59;26.67
83483;BME280;73420;32.678;-85.380;2024-03-08T07:55:21;98466.17;;;25.60;26.67
83483;BME280;73420;32.678;-85.380;2024-03-08T07:57:46;98466.16;;;25.78;26.64
83483;BME280;73420;32.678;-85.380;2024-03-08T08:00:12;98467.13;;;25.46;26.88
83483;BME280;73420;32.678;-85.380;2024-03-08T08:02:37;98472.14;;;25.45;26.87
83483;BME280;73420;32.678;-85.380;2024-03-08T08:05:07;98487.63;;;25.52;26.89
83483;BME280;73420;32.678;-85.380;2024-03-08T08:07:27;98495.02;;;25.56;26.92
83483;BME280;73420;32.678;-85.380;2024-03-08T08:09:53;98500.12;;;25.63;26.75
83483;BME280;73420;32.678;-85.380;2024-03-08T08:12:18;98497.73;;;25.22;26.76
83483;BME280;73420;32.678;-85.380;2024-03-08T08:14:43;98503.60;;;25.77;26.63
83483;BME280;73420;32.678;-85.380;2024-03-08T08:17:08;98509.99;;;25.31;26.63
83483;BME280;73420;32.678;-85.380;2024-03-08T08:19:34;98518.38;;;25.80;26.53
83483;BME280;73420;32.678;-85.380;2024-03-08T08:21:59;98524.94;;;25.78;26.59
83483;BME280;73420;32.678;-85.380;2024-03-08T08:24:24;98530.26;;;25.33;26.56
83483;BME280;73420;32.678;-85.380;2024-03-08T08:26:49;98542.52;;;25.55;26.47
83483;BME280;73420;32.678;-85.380;2024-03-08T08:29:15;98556.07;;;25.71;26.43
83483;BME280;73420;32.678;-85.380;2024-03-08T08:31:40;98573.58;;;25.20;26.40
83483;BME280;73420;32.678;-85.380;2024-03-08T08:34:06;98566.62;;;25.79;26.37
83483;BME280;73420;32.678;-85.380;2024-03-08T08:36:31;98564.37;;;25.67;26.93
83483;BME280;73420;32.678;-85.380;2024-03-08T08:38:56;98572.49;;;25.28;26.74
83483;BME280;73420;32.678;-85.380;2024-03-08T08:41:22;98571.69;;;25.51;26.84
83483;BME280;73420;32.678;-85.380;2024-03-08T08:43:47;98587.33;;;25.50;26.95
83483;BME280;73420;32.678;-85.380;2024-03-08T08:46:12;98599.21;;;25.18;27.03
83483;BME280;73420;32.678;-85.380;2024-03-08T08:48:38;98590.84;;;25.21;27.72
83483;BME280;73420;32.678;-85.380;2024-03-08T08:51:03;98589.89;;;24.92;28.32
83483;BME280;73420;32.678;-85.380;2024-03-08T08:53:29;98580.69;;;24.85;28.39
83483;BME280;73420;32.678;-85.380;2024-03-08T08:55:54;98582.55;;;24.80;28.07
83483;BME280;73420;32.678;-85.380;2024-03-08T08:58:19;98585.35;;;24.93;27.51
83483;BME280;73420;32.678;-85.380;2024-03-08T09:00:45;98581.83;;;25.37;27.68
83483;BME280;73420;32.678;-85.380;2024-03-08T09:03:10;98583.88;;;24.65;28.21
83483;BME280;73420;32.678;-85.380;2024-03-08T09:05:36;98589.20;;;24.63;28.19
83483;BME280;73420;32.678;-85.380;2024-03-08T09:08:01;98586.00;;;24.69;28.32
83483;BME280;73420;32.678;-85.380;2024-03-08T09:10:26;98576.89;;;24.67;28.36
83483;BME280;73420;32.678;-85.380;2024-03-08T09:12:52;98574.07;;;24.72;28.25
83483;BME280;73420;32.678;-85.380;2024-03-08T09:15:17;98567.45;;;25.02;28.11
83483;BME280;73420;32.678;-85.380;2024-03-08T09:17:43;98565.49;;;24.64;27.94
83483;BME280;73420;32.678;-85.380;2024-03-08T09:20:09;98573.28;;;24.88;27.89
83483;BME280;73420;32.678;-85.380;2024-03-08T09:22:34;98569.22;;;24.88;27.86
83483;BME280;73420;32.678;-85.380;2024-03-08T09:24:59;98566.30;;;24.94;27.75
83483;BME280;73420;32.678;-85.380;2024-03-08T09:27:25;98570.63;;;25.05;27.66
83483;BME280;73420;32.678;-85.380;2024-03-08T09:29:50;98562.64;;;25.23;27.63
83483;BME280;73420;32.678;-85.380;2024-03-08T09:32:15;98556.66;;;25.06;27.58
83483;BME280;73420;32.678;-85.380;2024-03-08T09:34:41;98530.67;;;25.07;27.41
83483;BME280;73420;32.678;-85.380;2024-03-08T09:37:07;98516.35;;;24.95;27.63
83483;BME280;73420;32.678;-85.380;2024-03-08T09:39:31;98519.39;;;24.95;27.58
83483;BME280;73420;32.678;-85.380;2024-03-08T09:41:57;98521.02;;;25.21;27.57
83483;BME280;73420;32.678;-85.380;2024-03-08T09:44:23;98527.40;;;25.24;27.57
83483;BME280;73420;32.678;-85.380;2024-03-08T09:46:48;98525.98;;;24.95;27.66
83483;BME280;73420;32.678;-85.380;2024-03-08T09:49:13;98517.97;;;25.20;27.59
83483;BME280;73420;32.678;-85.380;2024-03-08T09:51:39;98515.04;;;25.23;27.67
83483;BME280;73420;32.678;-85.380;2024-03-08T09:54:05;98525.76;;;24.90;27.76
83483;BME280;73420;32.678;-85.380;2024-03-08T09:56:32;98544.18;;;24.91;27.80
83483;BME280;73420;32.678;-85.380;2024-03-08T09:58:55;98541.56;;;24.85;27.91
83483;BME280;73420;32.678;-85.380;2024-03-08T10:01:21;98522.59;;;24.84;27.95
83483;BME280;73420;32.678;-85.380;2024-03-08T10:03:47;98526.40;;;24.80;28.05
83483;BME280;73420;32.678;-85.380;2024-03-08T10:06:11;98532.70;;;24.73;28.17
83483;BME280;73420;32.678;-85.380;2024-03-08T10:08:36;98527.88;;;24.63;28.43
83483;BME280;73420;32.678;-85.380;2024-03-08T10:11:01;98531.56;;;25.21;28.22
83483;BME280;73420;32.678;-85.380;2024-03-08T10:13:27;98540.27;;;24.89;27.98
83483;BME280;73420;32.678;-85.380;2024-03-08T10:15:52;98548.16;;;25.08;28.09
83483;BME280;73420;32.678;-85.380;2024-03-08T10:18:18;98551.41;;;24.84;28.14
83483;BME280;73420;32.678;-85.380;2024-03-08T10:20:43;98545.07;;;24.91;28.04
83483;BME280;73420;32.678;-85.380;2024-03-08T10:23:09;98545.87;;;25.18;28.09
83483;BME280;73420;32.678;-85.380;2024-03-08T10:25:35;98545.88;;;24.67;28.15
83483;BME280;73420;32.678;-85.380;2024-03-08T10:28:02;98541.72;;;25.05;28.20
83483;BME280;73420;32.678;-85.380;2024-03-08T10:30:26;98536.90;;;24.80;28.19
83483;BME280;73420;32.678;-85.380;2024-03-08T10:32:51;98527.33;;;25.30;28.16
83483;BME280;73420;32.678;-85.380;2024-03-08T10:35:17;98515.43;;;24.63;28.27
83483;BME280;73420;32.678;-85.380;2024-03-08T10:37:45;98500.82;;;24.52;28.28
83483;BME280;73420;32.678;-85.380;2024-03-08T10:40:10;98499.74;;;25.01;28.24
83483;BME280;73420;32.678;-85.380;2024-03-08T10:42:40;98509.85;;;24.49;28.35
83483;BME280;73420;32.678;-85.380;2024-03-08T10:45:06;98511.73;;;24.61;28.53
83483;BME280;73420;32.678;-85.380;2024-03-08T10:47:26;98512.37;;;24.40;28.50
83483;BME280;73420;32.678;-85.380;2024-03-08T10:49:54;98511.23;;;24.47;28.64
83483;BME280;73420;32.678;-85.380;2024-03-08T10:52:15;98513.73;;;24.24;28.81
83483;BME280;73420;32.678;-85.380;2024-03-08T10:54:41;98518.62;;;24.75;28.85
83483;BME280;73420;32.678;-85.380;2024-03-08T10:57:06;98524.41;;;24.48;28.95
83483;BME280;73420;32.678;-85.380;2024-03-08T10:59:31;98530.83;;;24.46;29.08
83483;BME280;73420;32.678;-85.380;2024-03-08T11:01:57;98541.19;;;24.13;29.18
83483;BME280;73420;32.678;-85.380;2024-03-08T11:04:22;98539.18;;;24.30;29.19
83483;BME280;73420;32.678;-85.380;2024-03-08T11:06:50;98530.08;;;24.20;29.28
83483;BME280;73420;32.678;-85.380;2024-03-08T11:11:39;98519.69;;;24.39;29.34
83483;BME280;73420;32.678;-85.380;2024-03-08T11:14:04;98516.48;;;24.39;29.46
83483;BME280;73420;32.678;-85.380;2024-03-08T11:16:39;98525.02;;;24.22;29.37
83483;BME280;73420;32.678;-85.380;2024-03-08T11:18:58;98537.00;;;24.51;29.32
83483;BME280;73420;32.678;-85.380;2024-03-08T11:21:21;98552.05;;;24.47;29.45
83483;BME280;73420;32.678;-85.380;2024-03-08T11:26:18;98559.16;;;24.40;29.49
83483;BME280;73420;32.678;-85.380;2024-03-08T11:28:37;98554.93;;;24.35;29.69
83483;BME280;73420;32.678;-85.380;2024-03-08T11:33:29;98549.54;;;23.94;29.99
83483;BME280;73420;32.678;-85.380;2024-03-08T11:36:02;98546.23;;;24.06;30.02
83483;BME280;73420;32.678;-85.380;2024-03-08T11:38:18;98548.33;;;24.13;30.07
83483;BME280;73420;32.678;-85.380;2024-03-08T11:40:46;98561.86;;;23.85;30.10
83483;BME280;73420;32.678;-85.380;2024-03-08T11:43:09;98565.54;;;24.18;29.99
83483;BME280;73420;32.678;-85.380;2024-03-08T11:45:35;98564.46;;;24.02;30.30
83483;BME280;73420;32.678;-85.380;2024-03-08T11:48:00;98563.63;;;24.06;30.33
83483;BME280;73420;32.678;-85.380;2024-03-08T11:50:25;98562.55;;;24.13;30.29
83483;BME280;73420;32.678;-85.380;2024-03-08T11:52:51;98559.76;;;23.57;30.35
83483;BME280;73420;32.678;-85.380;2024-03-08T11:55:16;98559.54;;;23.83;30.69
83483;BME280;73420;32.678;-85.380;2024-03-08T11:57:42;98570.84;;;23.99;30.51
83483;BME280;73420;32.678;-85.380;2024-03-08T12:00:15;98578.47;;;23.72;30.62
83483;BME280;73420;32.678;-85.380;2024-03-08T12:02:33;98585.60;;;23.79;30.68
83483;BME280;73420;32.678;-85.380;2024-03-08T12:04:59;98599.41;;;23.67;30.56
83483;BME280;73420;32.678;-85.380;2024-03-08T12:07:24;98612.30;;;24.22;30.55
83483;BME280;73420;32.678;-85.380;2024-03-08T12:12:14;98640.09;;;24.18;30.60
83483;BME280;73420;32.678;-85.380;2024-03-08T12:14:43;98649.09;;;23.84;30.75
83483;BME280;73420;32.678;-85.380;2024-03-08T12:17:05;98665.61;;;23.76;30.95
83483;BME280;73420;32.678;-85.380;2024-03-08T12:19:31;98675.79;;;23.94;31.02
83483;BME280;73420;32.678;-85.380;2024-03-08T12:21:56;98677.36;;;24.12;30.78
83483;BME280;73420;32.678;-85.380;2024-03-08T12:24:21;98678.89;;;24.04;30.91
83483;BME280;73420;32.678;-85.380;2024-03-08T12:26:47;98680.08;;;23.85;30.77
83483;BME280;73420;32.678;-85.380;2024-03-08T12:29:17;98700.84;;;24.11;31.00
83483;BME280;73420;32.678;-85.380;2024-03-08T12:31:38;98697.46;;;23.91;30.90
83483;BME280;73420;32.678;-85.380;2024-03-08T12:34:04;98679.99;;;24.21;30.85
83483;BME280;73420;32.678;-85.380;2024-03-08T12:36:29;98680.26;;;24.23;30.96
83483;BME280;73420;32.678;-85.380;2024-03-08T12:38:54;98683.88;;;24.13;30.85